Time;durP1;ratioP1;P1;durP2;ratioP2;P2;SDS_P1;SDS_P2;PMS_P1;PMS_P2;Temp;Humidity;BMP_temperature;BMP_pressure;BME280_temperature;BME280_humidity;BME280_pressure;Samples;Min_cycle;Max_cycle;Signal;HPM_P1;HPM_P2
2023/05/22 05:00:28;;;;;;;16.00;14.50;;;17.50;97.20;;;;;;1728187;28;20180;-72
2023/05/22 05:01:19;;;;;;;15.57;14.27;;;17.50;97.20;;;;;;1727380;28;20262;-72
2023/05/22 05:02:11;;;;;;;16.23;14.82;;;17.50;97.20;;;;;;1728133;28;20200;-72
2023/05/22 05:03:02;;;;;;;15.30;13.80;;;17.50;97.20;;;;;;1727791;28;20680;-73
2023/05/22 05:03:54;;;;;;;16.60;15.05;;;17.60;97.20;;;;;;1727828;28;20185;-72
2023/05/22 05:04:45;;;;;;;15.88;14.48;;;17.60;97.20;;;;;;1728163;28;20212;-73
2023/05/22 05:05:37;;;;;;;16.70;15.20;;;17.60;97.20;;;;;;1728177;28;20203;-73
2023/05/22 05:06:28;;;;;;;15.80;14.50;;;17.60;97.20;;;;;;1728133;28;20213;-73
2023/05/22 05:07:20;;;;;;;14.03;12.83;;;17.70;97.20;;;;;;1728123;28;20196;-73
2023/05/22 05:08:11;;;;;;;16.08;14.60;;;17.70;97.20;;;;;;1728180;28;20287;-73
2023/05/22 05:09:03;;;;;;;15.93;14.43;;;17.70;97.20;;;;;;1728116;28;20200;-73
2023/05/22 05:09:53;;;;;;;15.23;13.82;;;17.70;97.20;;;;;;1728134;28;20450;-73
2023/05/22 05:10:45;;;;;;;15.87;14.40;;;17.80;97.20;;;;;;1726590;28;20227;-72
2023/05/22 05:11:36;;;;;;;15.05;13.55;;;17.80;97.20;;;;;;1725040;28;20197;-75
2023/05/22 05:12:28;;;;;;;14.80;13.60;;;17.80;97.20;;;;;;1724604;28;20196;-74
2023/05/22 05:13:18;;;;;;;15.50;14.00;;;17.90;97.20;;;;;;1726912;28;20201;-75
2023/05/22 05:14:10;;;;;;;15.73;14.33;;;17.90;97.20;;;;;;1727215;28;20199;-73
2023/05/22 05:15:01;;;;;;;14.55;13.20;;;17.90;97.20;;;;;;1727496;28;20577;-72
2023/05/22 05:15:54;;;;;;;15.93;14.53;;;18.00;97.20;;;;;;1723851;28;20216;-72
2023/05/22 05:16:45;;;;;;;15.80;14.40;;;18.00;97.20;;;;;;1727789;28;20208;-74
2023/05/22 05:17:37;;;;;;;15.53;14.03;;;18.00;97.20;;;;;;1726750;28;20199;-76
2023/05/22 05:18:28;;;;;;;14.93;13.55;;;18.10;97.20;;;;;;1724729;28;20230;-73
2023/05/22 05:19:20;;;;;;;15.17;13.73;;;18.10;97.20;;;;;;1721360;28;20213;-74
2023/05/22 05:20:13;;;;;;;15.18;13.95;;;18.10;97.20;;;;;;1726874;28;20763;-75
2023/05/22 05:21:05;;;;;;;14.95;13.65;;;18.20;97.20;;;;;;1728031;28;20667;-75
2023/05/22 05:21:55;;;;;;;14.80;13.40;;;18.20;97.20;;;;;;1726507;28;20216;-76
2023/05/22 05:22:47;;;;;;;14.67;13.37;;;18.30;97.20;;;;;;1721591;28;20225;-76
2023/05/22 05:23:38;;;;;;;16.67;15.05;;;18.30;97.20;;;;;;1722486;28;20216;-75
2023/05/22 05:24:30;;;;;;;15.40;14.10;;;18.30;97.20;;;;;;1722312;28;20287;-74
2023/05/22 05:25:20;;;;;;;15.18;13.68;;;18.30;97.20;;;;;;1725371;28;20200;-74
2023/05/22 05:26:12;;;;;;;15.33;14.03;;;18.40;97.20;;;;;;1725085;28;20193;-72
2023/05/22 05:27:03;;;;;;;16.65;14.55;;;18.40;97.20;;;;;;1721265;28;20205;-72
2023/05/22 05:27:55;;;;;;;15.07;13.67;;;18.40;97.20;;;;;;1725607;28;20200;-72
2023/05/22 05:28:45;;;;;;;15.35;14.00;;;18.40;97.20;;;;;;1728008;28;20440;-73
2023/05/22 05:29:37;;;;;;;15.30;13.83;;;18.50;97.20;;;;;;1726752;28;20207;-71
2023/05/22 05:30:30;;;;;;;15.25;13.85;;;18.50;97.20;;;;;;1727446;28;20220;-74
2023/05/22 05:31:23;;;;;;;15.82;14.25;;;18.50;97.20;;;;;;1727650;28;20717;-72
2023/05/22 05:32:14;;;;;;;14.82;13.57;;;18.50;97.20;;;;;;1720986;28;20201;-72
2023/05/22 05:33:06;;;;;;;16.08;14.52;;;18.60;97.20;;;;;;1720418;28;20197;-73
2023/05/22 05:33:57;;;;;;;15.98;14.48;;;18.60;97.20;;;;;;1720674;28;20204;-73
2023/05/22 05:34:49;;;;;;;15.03;13.63;;;18.70;97.20;;;;;;1720690;28;20208;-73
2023/05/22 05:35:40;;;;;;;14.90;13.60;;;18.70;97.20;;;;;;1720422;28;20213;-73
2023/05/22 05:36:31;;;;;;;16.07;14.60;;;18.70;97.20;;;;;;1727497;28;20193;-74
2023/05/22 05:37:22;;;;;;;14.90;13.48;;;18.80;97.20;;;;;;1727939;28;20205;-74
2023/05/22 05:38:15;;;;;;;15.70;14.30;;;18.80;97.20;;;;;;1727635;28;20279;-73
2023/05/22 05:39:06;;;;;;;16.67;15.07;;;18.90;97.20;;;;;;1727874;28;20856;-75
2023/05/22 05:39:58;;;;;;;15.40;14.00;;;18.90;97.20;;;;;;1727776;28;20209;-73
2023/05/22 05:40:49;;;;;;;16.02;14.45;;;18.90;97.20;;;;;;1727230;28;20224;-74
2023/05/22 05:41:40;;;;;;;15.60;14.10;;;19.00;97.20;;;;;;1727698;28;20694;-73
2023/05/22 05:42:31;;;;;;;15.90;14.20;;;19.00;97.20;;;;;;1726849;28;20563;-74
2023/05/22 05:43:24;;;;;;;17.00;15.40;;;19.10;97.20;;;;;;1721615;28;20570;-72
2023/05/22 05:44:14;;;;;;;15.90;14.50;;;19.10;97.20;;;;;;1722968;28;20338;-73
2023/05/22 05:45:07;;;;;;;16.97;15.60;;;19.20;97.20;;;;;;1725916;28;20259;-73
2023/05/22 05:45:58;;;;;;;16.85;15.30;;;19.20;97.20;;;;;;1727814;28;20201;-72
2023/05/22 05:46:52;;;;;;;16.10;14.50;;;19.20;97.20;;;;;;1727992;28;20196;-73
2023/05/22 05:47:43;;;;;;;16.35;14.85;;;19.30;97.20;;;;;;1727978;28;20448;-73
2023/05/22 05:48:34;;;;;;;15.77;14.37;;;19.30;97.20;;;;;;1727909;28;20215;-73
2023/05/22 05:49:25;;;;;;;16.70;15.10;;;19.40;97.20;;;;;;1727945;28;20204;-73
2023/05/22 05:50:17;;;;;;;16.23;14.73;;;19.40;97.20;;;;;;1727704;28;20203;-73
2023/05/22 05:51:08;;;;;;;16.85;15.35;;;19.40;97.20;;;;;;1727769;28;20200;-73
2023/05/22 05:52:00;;;;;;;16.17;14.67;;;19.50;97.20;;;;;;1727902;28;20205;-73
2023/05/22 05:52:51;;;;;;;16.92;15.40;;;19.50;97.20;;;;;;1727117;28;20204;-73
2023/05/22 05:53:42;;;;;;;17.50;15.90;;;19.60;97.20;;;;;;1727679;28;20236;-73
2023/05/22 05:54:33;;;;;;;16.50;14.82;;;19.60;97.20;;;;;;1727511;28;20200;-73
2023/05/22 05:55:25;;;;;;;21.10;16.67;;;19.70;97.20;;;;;;1727795;28;20205;-73
2023/05/22 05:56:16;;;;;;;17.92;16.13;;;19.70;97.20;;;;;;1727971;28;20249;-73
2023/05/22 05:57:08;;;;;;;17.63;15.37;;;19.80;97.20;;;;;;1727705;28;20192;-73
2023/05/22 05:57:59;;;;;;;16.75;15.27;;;19.80;97.20;;;;;;1727868;28;20812;-73
2023/05/22 05:58:50;;;;;;;17.23;15.43;;;19.90;97.20;;;;;;1727215;28;20593;-73
2023/05/22 05:59:41;;;;;;;17.50;15.85;;;19.90;97.20;;;;;;1720994;28;20452;-73
2023/05/22 06:00:33;;;;;;;17.27;15.73;;;19.90;97.20;;;;;;1720896;28;20244;-73
2023/05/22 06:01:25;;;;;;;17.10;15.50;;;20.00;97.20;;;;;;1720930;28;20680;-73
2023/05/22 06:02:18;;;;;;;16.45;14.75;;;20.00;97.20;;;;;;1720921;28;20201;-73
2023/05/22 06:03:09;;;;;;;16.85;15.35;;;20.10;97.20;;;;;;1720521;28;20216;-73
2023/05/22 06:04:02;;;;;;;15.77;14.37;;;20.10;97.20;;;;;;1720897;28;20224;-73
2023/05/22 06:04:54;;;;;;;17.33;15.73;;;20.20;97.20;;;;;;1721022;28;20209;-74
2023/05/22 06:05:46;;;;;;;17.23;15.60;;;20.20;97.20;;;;;;1720997;28;20260;-73
2023/05/22 06:06:38;;;;;;;17.23;15.63;;;20.20;97.20;;;;;;1720928;28;20205;-73
2023/05/22 06:07:29;;;;;;;16.83;15.32;;;20.30;97.20;;;;;;1720890;28;20208;-73
2023/05/22 06:08:20;;;;;;;19.17;17.13;;;20.30;97.20;;;;;;1720940;28;20229;-73
2023/05/22 06:09:12;;;;;;;18.13;16.33;;;20.30;97.20;;;;;;1721051;28;20189;-72
2023/05/22 06:10:03;;;;;;;19.90;18.00;;;20.30;97.20;;;;;;1720884;28;20648;-72
2023/05/22 06:10:55;;;;;;;20.65;18.67;;;20.30;97.20;;;;;;1720888;28;20312;-72
2023/05/22 06:11:46;;;;;;;21.35;19.30;;;20.30;97.20;;;;;;1721066;28;20247;-72
2023/05/22 06:12:38;;;;;;;22.17;20.17;;;20.30;97.20;;;;;;1720267;28;20209;-72
2023/05/22 06:13:29;;;;;;;22.40;20.30;;;20.40;97.20;;;;;;1725191;28;20211;-72
2023/05/22 06:14:20;;;;;;;23.15;19.60;;;20.30;97.20;;;;;;1727209;28;20231;-72
2023/05/22 06:15:12;;;;;;;21.67;19.63;;;20.30;97.20;;;;;;1727589;28;20199;-72
2023/05/22 06:16:04;;;;;;;22.33;20.02;;;20.30;97.20;;;;;;1727568;28;20363;-72
2023/05/22 06:16:56;;;;;;;20.42;18.52;;;20.30;97.20;;;;;;1727586;28;20200;-72
2023/05/22 06:17:48;;;;;;;21.65;19.65;;;20.30;97.20;;;;;;1727596;28;20606;-72
2023/05/22 06:18:39;;;;;;;21.25;19.05;;;20.40;97.20;;;;;;1727559;28;20316;-72
2023/05/22 06:19:30;;;;;;;19.48;17.58;;;20.40;97.20;;;;;;1727540;28;20584;-72
2023/05/22 06:20:23;;;;;;;20.87;18.87;;;20.40;97.20;;;;;;1727541;28;20219;-73
2023/05/22 06:21:14;;;;;;;21.05;18.95;;;20.40;97.20;;;;;;1727679;28;20212;-72
2023/05/22 06:22:06;;;;;;;25.07;19.80;;;20.50;97.20;;;;;;1727546;28;20204;-73
2023/05/22 06:22:57;;;;;;;21.25;19.35;;;20.40;97.20;;;;;;1726920;28;20439;-72
2023/05/22 06:23:49;;;;;;;22.10;19.80;;;20.50;97.20;;;;;;1727463;28;20196;-74
2023/05/22 06:24:40;;;;;;;20.63;18.80;;;20.50;97.20;;;;;;1727662;28;20792;-74
2023/05/22 06:25:31;;;;;;;20.67;18.60;;;20.50;97.20;;;;;;1727641;28;20197;-74
2023/05/22 06:26:24;;;;;;;19.98;17.98;;;20.50;97.20;;;;;;1727644;28;20203;-74
2023/05/22 06:27:16;;;;;;;21.85;19.35;;;20.50;97.20;;;;;;1725855;28;20262;-75
2023/05/22 06:28:07;;;;;;;21.70;19.58;;;20.50;97.20;;;;;;1724292;28;20197;-75
2023/05/22 06:28:58;;;;;;;22.00;19.07;;;20.60;97.20;;;;;;1721936;28;20189;-75
2023/05/22 06:29:50;;;;;;;20.48;17.40;;;20.60;97.20;;;;;;1724796;28;20570;-73
2023/05/22 06:30:41;;;;;;;20.55;17.90;;;20.60;97.20;;;;;;1720406;28;20594;-74
2023/05/22 06:31:34;;;;;;;21.13;18.92;;;20.70;97.20;;;;;;1720726;28;20198;-74
2023/05/22 06:32:25;;;;;;;20.35;18.23;;;20.70;97.20;;;;;;1719946;28;20204;-75
2023/05/22 06:33:18;;;;;;;20.63;18.42;;;20.70;97.20;;;;;;1724500;28;20199;-74
2023/05/22 06:34:09;;;;;;;20.27;18.30;;;20.80;97.20;;;;;;1727369;28;20231;-74
2023/05/22 06:35:00;;;;;;;23.17;18.50;;;20.80;97.20;;;;;;1728063;28;20664;-75
2023/05/22 06:35:52;;;;;;;22.00;18.97;;;20.90;97.20;;;;;;1722870;28;20675;-74
2023/05/22 06:36:44;;;;;;;20.38;18.38;;;20.90;97.20;;;;;;1721614;28;20813;-74
2023/05/22 06:37:37;;;;;;;21.10;19.05;;;21.00;97.20;;;;;;1721356;28;20632;-74
2023/05/22 06:38:28;;;;;;;21.10;18.83;;;21.00;97.20;;;;;;1722281;28;20205;-74
2023/05/22 06:39:20;;;;;;;21.63;19.60;;;21.00;97.20;;;;;;1720645;28;20233;-73
2023/05/22 06:40:12;;;;;;;21.80;19.88;;;21.10;97.20;;;;;;1720686;28;20228;-74
2023/05/22 06:41:04;;;;;;;20.83;18.90;;;21.10;97.20;;;;;;1720638;28;20204;-74
2023/05/22 06:41:54;;;;;;;20.23;18.25;;;21.10;97.20;;;;;;1720814;28;20216;-73
2023/05/22 06:42:46;;;;;;;21.50;19.23;;;21.20;97.20;;;;;;1720060;28;20201;-73
2023/05/22 06:43:37;;;;;;;22.08;18.98;;;21.30;97.20;;;;;;1720681;28;20236;-73
2023/05/22 06:44:28;;;;;;;19.73;17.40;;;21.30;97.20;;;;;;1720692;28;20208;-74
2023/05/22 06:45:19;;;;;;;21.58;18.20;;;21.40;97.20;;;;;;1720772;28;20202;-74
2023/05/22 06:46:12;;;;;;;20.63;18.70;;;21.50;97.20;;;;;;1720762;28;20201;-74
2023/05/22 06:47:03;;;;;;;19.52;17.42;;;21.50;97.20;;;;;;1720666;28;20209;-74
2023/05/22 06:47:55;;;;;;;18.73;16.93;;;21.60;97.20;;;;;;1720946;28;20197;-74
2023/05/22 06:48:47;;;;;;;19.17;17.40;;;21.60;97.20;;;;;;1720616;28;20444;-73
2023/05/22 06:49:39;;;;;;;20.15;17.35;;;21.70;97.20;;;;;;1720859;28;20205;-73
2023/05/22 06:50:30;;;;;;;19.38;17.48;;;21.70;97.20;;;;;;1720753;28;20204;-76
2023/05/22 06:51:23;;;;;;;19.73;17.77;;;21.70;97.20;;;;;;1720458;28;20193;-75
2023/05/22 06:52:14;;;;;;;19.58;17.73;;;21.80;97.20;;;;;;1726701;28;20451;-75
2023/05/22 06:53:06;;;;;;;19.73;17.70;;;21.80;97.20;;;;;;1724666;28;20196;-75
2023/05/22 06:53:57;;;;;;;19.92;17.75;;;21.90;97.20;;;;;;1720299;28;20205;-74
2023/05/22 06:54:48;;;;;;;25.03;19.37;;;21.90;97.20;;;;;;1720634;28;20259;-74
2023/05/22 06:55:39;;;;;;;20.48;17.45;;;22.00;97.20;;;;;;1720792;28;20209;-74
2023/05/22 06:56:31;;;;;;;19.03;17.33;;;22.00;97.20;;;;;;1720654;28;20283;-74
2023/05/22 06:57:22;;;;;;;19.17;17.38;;;22.10;97.20;;;;;;1721149;28;20209;-75
2023/05/22 06:58:14;;;;;;;18.70;16.90;;;22.10;97.20;;;;;;1723205;28;20676;-75
2023/05/22 06:59:05;;;;;;;18.52;16.77;;;22.20;97.20;;;;;;1720515;28;20201;-75
2023/05/22 06:59:57;;;;;;;19.43;17.63;;;22.20;97.20;;;;;;1727549;28;20212;-73
2023/05/22 07:00:47;;;;;;;19.25;17.33;;;22.20;97.20;;;;;;1727269;28;20467;-74
2023/05/22 07:01:40;;;;;;;17.90;16.03;;;22.30;97.20;;;;;;1727466;28;20203;-74
2023/05/22 07:02:30;;;;;;;19.10;17.25;;;22.30;97.20;;;;;;1726412;28;20209;-73
2023/05/22 07:03:22;;;;;;;17.17;15.57;;;22.40;97.20;;;;;;1727408;28;20201;-73
2023/05/22 07:04:15;;;;;;;22.02;16.35;;;22.40;97.20;;;;;;1726986;28;20192;-73
2023/05/22 07:05:08;;;;;;;21.98;17.08;;;22.50;97.20;;;;;;1727415;28;20296;-71
2023/05/22 07:05:58;;;;;;;23.60;15.82;;;22.50;97.20;;;;;;1727411;28;20204;-75
2023/05/22 07:06:50;;;;;;;19.13;17.30;;;22.60;97.20;;;;;;1727389;28;20200;-74
2023/05/22 07:07:41;;;;;;;24.80;16.38;;;22.60;97.20;;;;;;1722146;28;20201;-74
2023/05/22 07:08:33;;;;;;;20.02;18.02;;;22.60;97.20;;;;;;1720674;28;20212;-73
2023/05/22 07:09:24;;;;;;;19.40;17.38;;;22.60;97.20;;;;;;1720496;28;20201;-74
2023/05/22 07:10:16;;;;;;;17.33;15.77;;;22.60;97.20;;;;;;1720524;28;20205;-74
2023/05/22 07:11:07;;;;;;;27.52;17.60;;;22.60;97.20;;;;;;1720413;28;20209;-76
2023/05/22 07:11:59;;;;;;;46.55;21.27;;;22.60;97.20;;;;;;1720550;28;20229;-75
2023/05/22 07:12:50;;;;;;;23.65;16.73;;;22.60;97.20;;;;;;1719775;28;20684;-76
2023/05/22 07:13:41;;;;;;;18.92;15.68;;;22.60;97.20;;;;;;1722454;28;20211;-75
2023/05/22 07:14:33;;;;;;;17.90;16.20;;;22.70;97.20;;;;;;1727294;28;20197;-73
2023/05/22 07:15:24;;;;;;;19.23;15.30;;;22.70;97.20;;;;;;1727159;28;20475;-73
2023/05/22 07:16:16;;;;;;;20.42;15.07;;;22.80;97.20;;;;;;1727361;28;20196;-73
2023/05/22 07:17:07;;;;;;;16.20;14.35;;;22.80;97.20;;;;;;1727005;28;20211;-74
2023/05/22 07:17:59;;;;;;;17.33;15.83;;;22.80;97.20;;;;;;1727275;28;20689;-74
2023/05/22 07:18:50;;;;;;;17.52;15.82;;;22.80;97.20;;;;;;1727095;28;20443;-73
2023/05/22 07:19:43;;;;;;;17.13;15.33;;;22.80;97.20;;;;;;1727068;28;20220;-75
2023/05/22 07:20:33;;;;;;;17.17;15.55;;;22.90;97.20;;;;;;1725722;28;20271;-76
2023/05/22 07:21:25;;;;;;;17.80;16.03;;;22.90;97.20;;;;;;1726511;28;20200;-74
2023/05/22 07:22:16;;;;;;;18.10;16.50;;;22.80;97.20;;;;;;1727144;28;20200;-76
2023/05/22 07:23:08;;;;;;;18.30;16.67;;;22.80;97.20;;;;;;1726569;28;20208;-75
2023/05/22 07:24:02;;;;;;;17.25;15.55;;;22.70;97.20;;;;;;1727101;28;20207;-75
2023/05/22 07:24:53;;;;;;;16.55;15.10;;;22.70;97.20;;;;;;1726656;28;20193;-74
2023/05/22 07:25:44;;;;;;;18.65;16.75;;;22.60;97.20;;;;;;1727238;28;20737;-75
2023/05/22 07:26:36;;;;;;;16.93;15.53;;;22.60;97.20;;;;;;1727336;28;20720;-75
2023/05/22 07:27:27;;;;;;;16.45;14.95;;;22.60;97.20;;;;;;1727251;28;20558;-74
2023/05/22 07:28:19;;;;;;;16.07;14.43;;;22.60;97.20;;;;;;1727239;28;20218;-75
2023/05/22 07:29:09;;;;;;;16.13;14.82;;;22.60;97.20;;;;;;1727061;28;20204;-75
2023/05/22 07:30:01;;;;;;;16.20;14.80;;;22.50;97.20;;;;;;1726833;28;20216;-74
2023/05/22 07:30:52;;;;;;;15.05;13.85;;;22.50;97.20;;;;;;1726955;28;20263;-75
2023/05/22 07:31:44;;;;;;;15.57;14.00;;;22.40;97.20;;;;;;1727027;28;20703;-74
2023/05/22 07:32:34;;;;;;;15.80;14.50;;;22.40;97.20;;;;;;1726453;28;20232;-75
2023/05/22 07:33:26;;;;;;;15.13;13.80;;;22.30;97.20;;;;;;1727080;28;20204;-74
2023/05/22 07:34:17;;;;;;;15.93;14.55;;;22.30;97.20;;;;;;1726329;28;20692;-74
2023/05/22 07:35:10;;;;;;;15.33;13.93;;;22.20;97.20;;;;;;1720355;28;20569;-74
2023/05/22 07:36:01;;;;;;;14.73;13.52;;;22.20;97.20;;;;;;1720339;28;20197;-75
2023/05/22 07:36:53;;;;;;;14.30;13.00;;;22.10;97.20;;;;;;1720428;28;20201;-74
2023/05/22 07:37:43;;;;;;;14.82;13.43;;;22.10;97.20;;;;;;1720307;28;20208;-75
2023/05/22 07:38:35;;;;;;;14.40;13.23;;;22.10;97.20;;;;;;1721248;28;20201;-74
2023/05/22 07:39:26;;;;;;;14.80;13.50;;;22.00;97.20;;;;;;1727036;28;20211;-74
2023/05/22 07:40:18;;;;;;;14.73;13.45;;;22.00;97.20;;;;;;1727112;28;20205;-74
2023/05/22 07:41:08;;;;;;;13.90;12.77;;;22.00;97.20;;;;;;1727215;28;20201;-74
2023/05/22 07:42:00;;;;;;;14.33;13.13;;;22.00;97.20;;;;;;1727046;28;20684;-74
2023/05/22 07:42:51;;;;;;;14.80;13.55;;;22.00;97.20;;;;;;1726529;28;20201;-73
2023/05/22 07:43:43;;;;;;;14.37;13.17;;;22.00;97.20;;;;;;1726622;28;20208;-74
2023/05/22 07:44:33;;;;;;;14.95;13.60;;;21.90;97.20;;;;;;1727082;28;20237;-74
2023/05/22 07:45:25;;;;;;;14.20;12.70;;;21.90;97.20;;;;;;1727000;28;20211;-74
2023/05/22 07:46:16;;;;;;;15.80;14.13;;;21.90;97.20;;;;;;1727097;28;20200;-74
2023/05/22 07:47:08;;;;;;;15.77;13.37;;;21.90;97.20;;;;;;1727026;28;20201;-74
2023/05/22 07:48:00;;;;;;;14.90;13.48;;;21.90;97.20;;;;;;1727114;28;20197;-74
2023/05/22 07:48:52;;;;;;;14.77;13.45;;;21.90;97.20;;;;;;1726796;28;20196;-74
2023/05/22 07:49:43;;;;;;;14.35;13.05;;;21.80;97.20;;;;;;1726204;28;20562;-74
2023/05/22 07:50:36;;;;;;;15.47;14.17;;;21.80;97.20;;;;;;1719512;28;20778;-74
2023/05/22 07:51:26;;;;;;;15.25;13.95;;;21.80;97.20;;;;;;1720121;28;20210;-74
2023/05/22 07:52:18;;;;;;;14.83;13.63;;;21.70;97.20;;;;;;1722277;28;20197;-74
2023/05/22 07:53:10;;;;;;;13.85;12.65;;;21.70;97.20;;;;;;1722364;28;20197;-74
2023/05/22 07:54:02;;;;;;;15.25;13.85;;;21.70;97.20;;;;;;1726701;28;20678;-75
2023/05/22 07:54:53;;;;;;;15.48;14.18;;;21.70;97.20;;;;;;1726929;28;20694;-75
2023/05/22 07:55:44;;;;;;;15.95;14.45;;;21.70;97.20;;;;;;1726927;28;20515;-74
2023/05/22 07:56:39;;;;;;;16.52;15.02;;;21.70;97.20;;;;;;1726862;28;20231;-75
2023/05/22 07:57:31;;;;;;;14.60;13.20;;;21.70;97.20;;;;;;1726985;28;20224;-74
2023/05/22 07:58:23;;;;;;;14.85;13.65;;;21.70;97.20;;;;;;1720063;28;20204;-74
2023/05/22 07:59:18;;;;;;;14.27;13.07;;;21.70;97.20;;;;;;1720118;28;20212;-75
2023/05/22 08:00:11;;;;;;;14.20;13.00;;;21.70;97.20;;;;;;1720185;28;20236;-74
2023/05/22 08:01:03;;;;;;;14.38;12.95;;;21.80;97.20;;;;;;1726058;28;20196;-74
2023/05/22 08:01:54;;;;;;;15.48;14.07;;;21.80;97.20;;;;;;1723593;28;20842;-74
2023/05/22 08:02:46;;;;;;;15.23;13.77;;;21.90;97.20;;;;;;1719447;28;20599;-74
2023/05/22 08:03:37;;;;;;;14.30;12.80;;;21.90;97.20;;;;;;1719979;28;20449;-74
2023/05/22 08:04:29;;;;;;;15.73;14.23;;;21.90;97.20;;;;;;1720055;28;20234;-74
2023/05/22 08:05:20;;;;;;;15.27;13.98;;;22.00;97.20;;;;;;1720139;28;20617;-74
2023/05/22 08:06:14;;;;;;;15.10;13.70;;;22.00;97.20;;;;;;1720345;28;20205;-75
2023/05/22 08:07:05;;;;;;;14.70;13.40;;;22.00;97.20;;;;;;1724579;28;20347;-73
2023/05/22 08:07:57;;;;;;;14.83;13.37;;;22.00;97.20;;;;;;1728300;28;20208;-74
2023/05/22 08:08:47;;;;;;;15.57;14.23;;;22.10;97.20;;;;;;1728310;28;20193;-75
2023/05/22 08:09:39;;;;;;;14.70;13.37;;;22.10;97.20;;;;;;1728191;28;20196;-75
2023/05/22 08:10:30;;;;;;;14.45;13.05;;;22.20;97.20;;;;;;1728273;28;20689;-74
2023/05/22 08:11:22;;;;;;;16.27;14.80;;;22.20;97.20;;;;;;1728196;28;20672;-74
2023/05/22 08:12:13;;;;;;;15.23;13.98;;;22.30;97.20;;;;;;1723317;28;20444;-74
2023/05/22 08:13:05;;;;;;;14.10;12.67;;;22.30;97.20;;;;;;1720219;28;20619;-74
2023/05/22 08:13:56;;;;;;;15.38;13.73;;;22.40;97.20;;;;;;1720747;28;20229;-73
2023/05/22 08:14:47;;;;;;;15.90;14.50;;;22.40;97.20;;;;;;1721253;28;20201;-73
2023/05/22 08:15:38;;;;;;;14.80;13.55;;;22.40;97.20;;;;;;1720946;28;20216;-74
2023/05/22 08:16:30;;;;;;;15.67;14.27;;;22.50;97.20;;;;;;1721164;28;20197;-73
2023/05/22 08:17:21;;;;;;;14.93;13.48;;;22.50;97.20;;;;;;1726433;28;20590;-74
2023/05/22 08:18:13;;;;;;;13.90;12.70;;;22.50;97.20;;;;;;1728407;28;20236;-73
2023/05/22 08:19:05;;;;;;;15.25;13.85;;;22.60;97.20;;;;;;1728404;28;20212;-73
2023/05/22 08:19:57;;;;;;;14.60;13.40;;;22.60;97.20;;;;;;1728250;28;20235;-73
2023/05/22 08:20:48;;;;;;;16.00;14.52;;;22.70;97.20;;;;;;1727651;28;20711;-73
2023/05/22 08:21:41;;;;;;;14.93;13.33;;;22.80;97.20;;;;;;1721527;28;20582;-73
2023/05/22 08:22:33;;;;;;;15.23;13.82;;;22.90;97.20;;;;;;1720772;28;20208;-73
2023/05/22 08:23:24;;;;;;;15.18;13.77;;;22.90;97.20;;;;;;1721456;28;20197;-74
2023/05/22 08:24:15;;;;;;;15.13;13.85;;;23.00;97.20;;;;;;1721403;28;20202;-74
2023/05/22 08:25:08;;;;;;;13.80;12.70;;;23.00;97.20;;;;;;1721549;28;20200;-74
2023/05/22 08:25:58;;;;;;;14.95;13.50;;;23.00;97.20;;;;;;1721478;28;20580;-74
2023/05/22 08:26:50;;;;;;;14.23;13.00;;;23.10;97.20;;;;;;1721458;28;20228;-75
2023/05/22 08:27:41;;;;;;;15.25;13.70;;;23.20;97.20;;;;;;1721527;28;20205;-74
2023/05/22 08:28:32;;;;;;;14.43;13.23;;;23.20;97.20;;;;;;1721446;28;20197;-74
2023/05/22 08:29:23;;;;;;;15.70;14.43;;;23.30;97.20;;;;;;1721392;28;20204;-74
2023/05/22 08:30:15;;;;;;;15.23;13.90;;;23.30;97.20;;;;;;1721376;28;20190;-73
2023/05/22 08:31:06;;;;;;;15.15;13.82;;;23.40;97.20;;;;;;1723841;28;20198;-74
2023/05/22 08:31:58;;;;;;;15.17;13.87;;;23.40;97.20;;;;;;1728104;28;20196;-73
2023/05/22 08:32:49;;;;;;;14.75;13.55;;;23.40;97.20;;;;;;1727482;28;20204;-73
2023/05/22 08:33:40;;;;;;;15.17;13.77;;;23.50;97.20;;;;;;1728255;28;20203;-74
2023/05/22 08:34:31;;;;;;;14.75;13.50;;;23.50;97.20;;;;;;1728162;28;20274;-73
2023/05/22 08:35:23;;;;;;;14.97;13.67;;;23.60;97.20;;;;;;1723752;28;20240;-73
2023/05/22 08:36:14;;;;;;;13.88;12.45;;;23.80;97.20;;;;;;1721497;28;20803;-74
2023/05/22 08:37:08;;;;;;;14.90;13.40;;;23.90;97.20;;;;;;1721368;28;20296;-73
2023/05/22 08:37:58;;;;;;;15.45;14.20;;;24.10;97.20;;;;;;1721073;28;20227;-73
2023/05/22 08:38:50;;;;;;;14.00;12.90;;;24.30;97.20;;;;;;1720809;28;20231;-74
2023/05/22 08:39:41;;;;;;;14.05;12.73;;;24.40;97.20;;;;;;1720853;28;20205;-73
2023/05/22 08:40:36;;;;;;;15.13;13.90;;;24.60;97.20;;;;;;1720774;28;20313;-73
2023/05/22 08:41:28;;;;;;;14.98;13.68;;;24.70;97.20;;;;;;1721113;28;20571;-74
2023/05/22 08:42:20;;;;;;;14.77;13.43;;;24.80;97.20;;;;;;1723652;28;20200;-74
2023/05/22 08:43:10;;;;;;;15.48;14.15;;;24.90;97.20;;;;;;1727971;28;20196;-74
2023/05/22 08:44:02;;;;;;;13.90;12.70;;;25.00;97.20;;;;;;1723225;28;20194;-74
2023/05/22 08:44:54;;;;;;;14.45;13.15;;;25.00;97.20;;;;;;1721353;28;20240;-73
2023/05/22 08:45:47;;;;;;;13.77;12.57;;;25.10;97.20;;;;;;1721301;28;20205;-73
2023/05/22 08:46:40;;;;;;;13.43;12.23;;;25.10;97.20;;;;;;1721385;28;20580;-73
2023/05/22 08:47:34;;;;;;;13.65;12.45;;;25.20;97.20;;;;;;1721406;28;20293;-73
2023/05/22 08:48:28;;;;;;;14.55;13.13;;;25.30;97.20;;;;;;1721273;28;20239;-73
2023/05/22 08:49:22;;;;;;;14.23;12.90;;;25.40;97.20;;;;;;1721367;28;20588;-73
2023/05/22 08:50:15;;;;;;;34.92;16.40;;;25.60;97.20;;;;;;1722372;28;20197;-73
2023/05/22 08:51:08;;;;;;;17.40;13.82;;;25.60;97.20;;;;;;1728075;28;20236;-74
2023/05/22 08:52:02;;;;;;;14.38;13.05;;;25.70;97.20;;;;;;1727810;28;20575;-73
2023/05/22 08:52:57;;;;;;;26.50;14.68;;;25.70;97.20;;;;;;1726819;28;20228;-74
2023/05/22 08:53:54;;;;;;;14.70;13.23;;;25.70;97.20;;;;;;1726087;28;20261;-73
2023/05/22 08:54:51;;;;;;;14.40;13.13;;;25.60;97.20;;;;;;1727986;28;20212;-73
2023/05/22 08:55:43;;;;;;;13.98;12.65;;;25.60;97.20;;;;;;1727795;28;20235;-74
2023/05/22 08:56:35;;;;;;;14.48;13.18;;;25.50;97.20;;;;;;1724732;28;20212;-75
2023/05/22 08:57:27;;;;;;;12.68;11.57;;;25.50;97.20;;;;;;1731245;28;20210;-73
2023/05/22 08:58:18;;;;;;;14.73;13.23;;;25.50;97.20;;;;;;1730839;28;20199;-74
2023/05/22 08:59:11;;;;;;;13.90;12.70;;;25.40;97.20;;;;;;1733655;28;20210;-74
2023/05/22 09:00:02;;;;;;;13.63;12.43;;;25.40;97.20;;;;;;1727903;28;20205;-74
2023/05/22 09:00:54;;;;;;;13.95;12.57;;;25.30;97.20;;;;;;1727993;28;20243;-74
2023/05/22 09:01:46;;;;;;;13.95;12.55;;;25.30;97.20;;;;;;1725701;28;20212;-74
2023/05/22 09:02:38;;;;;;;17.50;12.68;;;25.30;97.20;;;;;;1720579;28;20292;-73
2023/05/22 09:03:31;;;;;;;13.55;12.35;;;25.30;97.20;;;;;;1721202;28;20205;-73
2023/05/22 09:04:24;;;;;;;14.23;13.13;;;25.40;97.20;;;;;;1721170;28;20201;-73
2023/05/22 09:05:17;;;;;;;18.75;13.10;;;25.40;97.20;;;;;;1721313;28;20201;-73
2023/05/22 09:06:10;;;;;;;21.50;13.82;;;25.50;97.20;;;;;;1721275;28;20209;-75
2023/05/22 09:07:04;;;;;;;15.15;13.88;;;25.60;97.20;;;;;;1721133;28;20197;-74
2023/05/22 09:07:57;;;;;;;13.95;12.38;;;25.70;97.20;;;;;;1721238;28;20291;-74
2023/05/22 09:08:48;;;;;;;14.68;13.20;;;25.80;97.20;;;;;;1721144;28;20212;-74
2023/05/22 09:09:40;;;;;;;14.27;12.80;;;25.90;97.20;;;;;;1721248;28;20205;-75
2023/05/22 09:10:32;;;;;;;14.77;12.52;;;26.00;97.20;;;;;;1721066;28;20205;-75
2023/05/22 09:11:23;;;;;;;13.73;12.63;;;26.10;97.20;;;;;;1721108;28;20208;-75
2023/05/22 09:12:15;;;;;;;22.55;13.50;;;26.20;97.20;;;;;;1724689;28;20543;-74
2023/05/22 09:13:08;;;;;;;15.55;12.98;;;26.30;97.20;;;;;;1727112;28;20288;-74
2023/05/22 09:14:08;;;;;;;13.52;12.43;;;26.30;97.20;;;;;;1727962;28;20235;-74
2023/05/22 09:15:08;;;;;;;27.00;13.98;;;26.40;97.20;;;;;;1727988;28;20735;-72
2023/05/22 09:16:07;;;;;;;13.98;12.02;;;26.50;97.20;;;;;;1728018;28;20250;-74
2023/05/22 09:16:59;;;;;;;18.23;13.27;;;26.60;97.20;;;;;;1725924;28;20204;-71
2023/05/22 09:17:49;;;;;;;17.38;12.45;;;26.70;97.20;;;;;;1721039;28;20291;-74
2023/05/22 09:18:42;;;;;;;13.80;12.23;;;26.70;97.20;;;;;;1721246;28;20209;-74
2023/05/22 09:19:32;;;;;;;12.98;11.85;;;26.80;97.20;;;;;;1721160;28;20552;-74
2023/05/22 09:20:24;;;;;;;39.13;14.30;;;26.90;97.20;;;;;;1720944;28;20723;-75
2023/05/22 09:21:18;;;;;;;34.75;14.85;;;26.90;97.20;;;;;;1721151;28;20220;-74
2023/05/22 09:22:08;;;;;;;15.20;12.90;;;27.00;97.20;;;;;;1721039;28;20233;-71
2023/05/22 09:23:02;;;;;;;17.37;13.90;;;27.00;97.20;;;;;;1720313;28;20199;-73